Amorita, Oklahoma
Current Conditions -  °F | °C
As of 7:55 PM on Sunday 21 Dec 2014 (Local Time) from KAVK Reporting Station
Haze Haze  
Wind Chill: 38°   Ceiling: 800
Heat Index: 45°   Visibility: 5mi
Dew Point: 45°   Wind: 13mph
Humidity: 100%   Direction: 150°SSE
Pressure: 29.66"   Gusts: 18mph
Location:  36.92°N, 98.29°W
Report Text: KAVK 220155Z AUTO 15011G16KT 5SM BR BKN008 OVC016 07/07 A2966 RMK AO2
Loading
Personal Weather Stations






























Interactive Weather Map New forecast layout! Learn more

10-Day Weather Forecast

Advertisements
Track Severe Weather on mobile